createdAt,value
2022-12-03T00:01:14.197Z,14.50
2022-12-03T00:03:46.804Z,15.77
2022-12-03T00:06:19.616Z,15.02
2022-12-03T00:08:52.127Z,15.32
2022-12-03T00:11:24.616Z,19.17
2022-12-03T00:13:57.144Z,16.55
2022-12-03T00:16:29.826Z,19.60
2022-12-03T00:19:02.632Z,16.50
2022-12-03T00:21:35.373Z,19.88
2022-12-03T00:24:08.560Z,15.43
2022-12-03T00:26:41.092Z,16.27
2022-12-03T00:29:14.233Z,18.20
2022-12-03T00:31:46.865Z,15.50
2022-12-03T00:34:19.504Z,16.48
2022-12-03T00:36:52.017Z,19.73
2022-12-03T00:39:24.552Z,17.20
2022-12-03T00:41:57.058Z,23.05
2022-12-03T00:44:29.606Z,20.48
2022-12-03T00:47:02.135Z,18.75
2022-12-03T00:49:34.692Z,17.00
2022-12-03T00:52:07.293Z,13.50
2022-12-03T00:54:39.792Z,16.70
2022-12-03T00:57:12.359Z,18.85
2022-12-03T00:59:44.896Z,17.25
2022-12-03T01:02:17.444Z,17.00
2022-12-03T01:04:50.221Z,21.80
2022-12-03T01:07:22.981Z,15.38
2022-12-03T01:09:55.503Z,16.13
2022-12-03T01:12:27.993Z,19.88
2022-12-03T01:15:00.487Z,16.60
2022-12-03T01:17:33.118Z,17.75
2022-12-03T01:20:07.891Z,16.98
2022-12-03T01:22:40.384Z,22.27
2022-12-03T01:25:12.894Z,18.08
2022-12-03T01:27:45.470Z,16.95
2022-12-03T01:30:18.088Z,18.80
2022-12-03T01:32:50.668Z,18.80
2022-12-03T01:35:23.211Z,19.35
2022-12-03T01:37:55.740Z,17.98
2022-12-03T01:40:28.217Z,16.48
2022-12-03T01:43:01.068Z,13.40
2022-12-03T01:45:33.647Z,19.08
2022-12-03T01:48:06.560Z,18.73
2022-12-03T01:50:39.101Z,19.20
2022-12-03T01:53:16.466Z,20.70
2022-12-03T01:55:49.212Z,23.35
2022-12-03T01:58:29.687Z,27.42
2022-12-03T02:01:17.919Z,22.58
2022-12-03T02:03:50.605Z,21.20
2022-12-03T02:06:29.797Z,16.95
2022-12-03T02:09:02.713Z,16.98
2022-12-03T02:11:49.487Z,21.05
2022-12-03T02:14:22.378Z,21.00
2022-12-03T02:16:54.941Z,20.40
2022-12-03T02:19:31.963Z,17.85
2022-12-03T02:22:28.743Z,26.33
2022-12-03T02:25:13.262Z,22.55
2022-12-03T02:27:47.802Z,21.20
2022-12-03T02:30:23.833Z,19.35
2022-12-03T02:32:58.006Z,16.95
2022-12-03T02:35:35.221Z,18.33
2022-12-03T02:38:23.034Z,23.27
2022-12-03T02:41:02.140Z,22.83
2022-12-03T02:43:34.784Z,21.63
2022-12-03T02:46:08.631Z,20.38
2022-12-03T02:48:41.804Z,19.27
2022-12-03T02:51:14.387Z,22.00
2022-12-03T02:53:51.935Z,21.33
2022-12-03T02:56:30.527Z,23.45
2022-12-03T02:59:05.718Z,20.98
2022-12-03T03:01:38.480Z,17.60
2022-12-03T03:04:11.422Z,23.85
2022-12-03T03:06:44.445Z,22.52
2022-12-03T03:09:17.333Z,20.40
2022-12-03T03:11:49.844Z,19.10
2022-12-03T03:14:22.485Z,18.15
2022-12-03T03:16:57.915Z,16.83
2022-12-03T03:19:30.784Z,22.10
2022-12-03T03:22:03.768Z,21.45
2022-12-03T03:24:36.768Z,22.05
2022-12-03T03:27:09.705Z,22.38
2022-12-03T03:29:42.287Z,23.00
2022-12-03T03:32:14.944Z,20.10
2022-12-03T03:34:47.725Z,22.85
2022-12-03T03:37:20.547Z,20.42
2022-12-03T03:39:53.490Z,22.35
2022-12-03T03:42:26.200Z,22.38
2022-12-03T03:44:59.303Z,23.67
2022-12-03T03:47:32.458Z,22.00
2022-12-03T03:50:08.178Z,16.63
2022-12-03T03:52:43.193Z,26.50
2022-12-03T03:55:15.867Z,20.45
2022-12-03T03:57:48.867Z,21.85
2022-12-03T04:00:21.747Z,22.88
2022-12-03T04:02:54.538Z,26.60
2022-12-03T04:05:28.232Z,22.58
2022-12-03T04:08:01.016Z,25.38
2022-12-03T04:10:52.352Z,17.38
2022-12-03T04:13:24.899Z,24.08
2022-12-03T04:15:57.507Z,23.75
2022-12-03T04:18:45.336Z,20.02
2022-12-03T04:21:40.698Z,23.50
2022-12-03T04:24:13.252Z,20.08
2022-12-03T04:27:04.681Z,22.83
2022-12-03T04:29:37.317Z,27.05
2022-12-03T04:32:28.508Z,20.02
2022-12-03T04:35:20.024Z,23.23
2022-12-03T04:37:52.547Z,23.05
2022-12-03T04:40:43.455Z,19.02
2022-12-03T04:43:15.908Z,24.38
2022-12-03T04:45:48.582Z,25.70
2022-12-03T04:48:21.148Z,21.58
2022-12-03T04:50:53.787Z,25.77
2022-12-03T04:53:26.278Z,28.23
2022-12-03T04:55:58.830Z,22.35
2022-12-03T04:58:31.299Z,24.00
2022-12-03T05:01:03.811Z,29.67
2022-12-03T05:03:36.385Z,27.05
2022-12-03T05:06:09.151Z,26.42
2022-12-03T05:08:41.600Z,24.92
2022-12-03T05:11:14.629Z,27.08
2022-12-03T05:13:47.155Z,23.40
2022-12-03T05:16:19.874Z,23.92
2022-12-03T05:18:52.524Z,25.02
2022-12-03T05:21:25.101Z,25.48
2022-12-03T05:23:57.641Z,25.05
2022-12-03T05:26:30.341Z,27.58
2022-12-03T05:29:03.042Z,23.52
2022-12-03T05:31:35.552Z,25.17
2022-12-03T05:34:08.054Z,24.77
2022-12-03T05:36:40.577Z,27.13
2022-12-03T05:39:13.165Z,22.00
2022-12-03T05:42:04.417Z,25.08
2022-12-03T05:44:36.925Z,22.35
2022-12-03T05:47:09.522Z,21.98
2022-12-03T05:49:42.058Z,29.58
2022-12-03T05:52:14.545Z,27.23
2022-12-03T05:54:47.096Z,24.55
2022-12-03T05:57:19.616Z,27.23
2022-12-03T05:59:52.139Z,27.30
2022-12-03T06:02:24.764Z,27.48
2022-12-03T06:04:57.363Z,23.35
2022-12-03T06:07:29.953Z,23.67
2022-12-03T06:10:03.942Z,21.58
2022-12-03T06:12:36.608Z,28.42
2022-12-03T06:15:11.003Z,21.48
2022-12-03T06:17:43.612Z,21.27
2022-12-03T06:20:19.600Z,22.95
2022-12-03T06:22:52.104Z,27.65
2022-12-03T06:25:24.671Z,24.95
2022-12-03T06:27:57.252Z,24.33
2022-12-03T06:30:29.934Z,22.45
2022-12-03T06:33:02.618Z,24.20
2022-12-03T06:35:36.504Z,26.73
2022-12-03T06:38:09.037Z,26.48
2022-12-03T06:40:41.531Z,25.70
2022-12-03T06:43:14.275Z,31.42
2022-12-03T06:45:48.057Z,27.80
2022-12-03T06:48:20.869Z,23.35
2022-12-03T06:50:53.316Z,32.33
2022-12-03T06:53:25.861Z,23.02
2022-12-03T06:55:58.383Z,25.75
2022-12-03T06:58:33.553Z,22.77
2022-12-03T07:01:06.078Z,24.38
2022-12-03T07:03:38.609Z,25.65
2022-12-03T07:06:11.112Z,22.27
2022-12-03T07:08:43.796Z,29.60
2022-12-03T07:11:31.321Z,25.67
2022-12-03T07:14:06.239Z,23.38
2022-12-03T07:16:39.437Z,25.88
2022-12-03T07:19:12.199Z,26.73
2022-12-03T07:21:44.708Z,29.98
2022-12-03T07:24:17.449Z,22.20
2022-12-03T07:26:49.960Z,29.98
2022-12-03T07:29:22.558Z,23.95
2022-12-03T07:31:55.175Z,25.08
2022-12-03T07:34:28.300Z,26.88
2022-12-03T07:37:00.833Z,23.77
2022-12-03T07:39:33.402Z,24.95
2022-12-03T07:42:05.956Z,31.30
2022-12-03T07:44:38.432Z,26.10
2022-12-03T07:47:10.966Z,27.75
2022-12-03T07:49:43.936Z,24.50
2022-12-03T07:52:16.563Z,20.52
2022-12-03T07:54:49.200Z,26.73
2022-12-03T07:57:21.768Z,22.67
2022-12-03T07:59:54.308Z,26.48
2022-12-03T08:02:26.836Z,26.13
2022-12-03T08:04:59.374Z,22.20
2022-12-03T08:07:31.862Z,24.25
2022-12-03T08:10:06.696Z,25.10
2022-12-03T08:12:42.602Z,26.15
2022-12-03T08:15:24.090Z,24.00
2022-12-03T08:18:00.343Z,28.30
2022-12-03T08:20:38.709Z,21.65
2022-12-03T08:23:22.103Z,27.83
2022-12-03T08:25:54.645Z,27.67
2022-12-03T08:28:27.141Z,27.45
2022-12-03T08:31:19.492Z,23.13
2022-12-03T08:33:59.174Z,26.80
2022-12-03T08:36:33.604Z,23.08
2022-12-03T08:39:43.010Z,23.25
2022-12-03T08:42:42.614Z,23.88
2022-12-03T08:45:31.889Z,20.67
2022-12-03T08:48:28.837Z,27.20
2022-12-03T08:51:15.309Z,21.10
2022-12-03T08:53:53.319Z,20.42
2022-12-03T08:56:35.788Z,23.88
2022-12-03T08:59:29.238Z,26.13
2022-12-03T09:02:02.105Z,22.83
2022-12-03T09:04:47.155Z,26.42
2022-12-03T09:07:19.659Z,22.63
2022-12-03T09:09:52.164Z,25.33
2022-12-03T09:12:24.630Z,24.33
2022-12-03T09:14:57.092Z,18.63
2022-12-03T09:17:29.675Z,22.45
2022-12-03T09:20:02.468Z,29.50
2022-12-03T09:22:35.023Z,23.73
2022-12-03T09:25:08.039Z,21.83
2022-12-03T09:27:40.530Z,22.40
2022-12-03T09:30:13.352Z,21.42
2022-12-03T09:32:45.850Z,20.83
2022-12-03T09:35:18.515Z,18.95
2022-12-03T09:37:51.057Z,22.00
2022-12-03T09:40:24.207Z,27.35
2022-12-03T09:42:59.855Z,22.58
2022-12-03T09:45:32.398Z,22.58
2022-12-03T09:48:05.354Z,25.42
2022-12-03T09:50:41.844Z,24.42
2022-12-03T09:55:54.057Z,25.15
2022-12-03T09:58:34.339Z,20.17
2022-12-03T10:01:15.136Z,24.05
2022-12-03T10:03:51.156Z,25.95
2022-12-03T10:06:24.272Z,23.27
2022-12-03T10:08:56.964Z,22.40
2022-12-03T10:11:31.315Z,22.38
2022-12-03T10:14:05.104Z,21.48
2022-12-03T10:16:40.160Z,21.23
2022-12-03T10:19:25.280Z,21.50
2022-12-03T10:21:58.239Z,19.88
2022-12-03T10:24:36.584Z,16.60
2022-12-03T10:27:30.250Z,14.70
2022-12-03T10:30:14.535Z,22.38
2022-12-03T10:32:50.607Z,19.42
2022-12-03T10:35:42.160Z,20.17
2022-12-03T10:38:17.641Z,18.90
2022-12-03T10:40:50.934Z,19.88
2022-12-03T10:43:25.584Z,15.98
2022-12-03T10:46:22.805Z,17.95
2022-12-03T10:49:11.824Z,16.35
2022-12-03T10:51:48.274Z,20.08
2022-12-03T10:54:27.272Z,18.05
2022-12-03T10:57:01.521Z,15.73
2022-12-03T10:59:35.136Z,21.50
2022-12-03T11:02:21.838Z,16.83
2022-12-03T11:04:55.323Z,17.98
2022-12-03T11:07:28.793Z,22.17
2022-12-03T11:10:02.612Z,20.15
2022-12-03T11:12:35.629Z,18.58
2022-12-03T11:15:16.533Z,19.38
2022-12-03T11:17:52.975Z,19.05
2022-12-03T11:22:59.870Z,18.85
2022-12-03T11:25:47.860Z,25.13
2022-12-03T11:28:20.256Z,23.42
2022-12-03T11:30:56.563Z,18.73
2022-12-03T11:33:40.579Z,19.33
2022-12-03T11:36:15.370Z,20.13
2022-12-03T11:38:54.999Z,18.73
2022-12-03T11:41:32.179Z,22.38
2022-12-03T11:44:31.148Z,21.60
2022-12-03T11:47:16.362Z,15.88
2022-12-03T11:49:49.100Z,17.15
2022-12-03T11:52:29.095Z,17.65
2022-12-03T11:55:16.045Z,17.48
2022-12-03T11:57:48.741Z,13.45
2022-12-03T12:00:24.368Z,20.42
2022-12-03T12:02:58.688Z,17.02
2022-12-03T12:05:34.384Z,17.50
2022-12-03T12:08:19.608Z,21.33
2022-12-03T12:10:52.337Z,20.63
2022-12-03T12:13:30.830Z,20.08
2022-12-03T12:16:06.207Z,19.20
2022-12-03T12:18:40.380Z,18.23
2022-12-03T12:21:43.268Z,17.90
2022-12-03T12:24:42.913Z,18.02
2022-12-03T12:27:49.317Z,17.83
2022-12-03T12:30:23.409Z,21.25
2022-12-03T12:33:13.349Z,17.95
2022-12-03T12:35:45.869Z,19.58
2022-12-03T12:38:24.180Z,16.33
2022-12-03T12:40:57.260Z,17.80
2022-12-03T12:43:32.503Z,17.88
2022-12-03T12:49:12.287Z,16.40
2022-12-03T12:51:47.718Z,23.50
2022-12-03T12:54:20.269Z,19.20
2022-12-03T12:56:53.136Z,18.35
2022-12-03T12:59:25.964Z,20.40
2022-12-03T13:02:01.124Z,21.23
2022-12-03T13:04:39.995Z,18.98
2022-12-03T13:07:12.476Z,17.63
2022-12-03T13:09:45.014Z,21.35
2022-12-03T13:12:23.422Z,25.35
2022-12-03T13:14:59.514Z,21.05
2022-12-03T13:17:31.980Z,21.05
2022-12-03T13:20:18.966Z,22.15
2022-12-03T13:22:51.479Z,21.48
2022-12-03T13:28:31.525Z,24.60
2022-12-03T13:31:43.530Z,24.02
2022-12-03T13:34:26.055Z,22.33
2022-12-03T13:37:01.096Z,24.38
2022-12-03T13:39:39.112Z,27.55
2022-12-03T13:42:46.448Z,25.25
2022-12-03T13:45:38.509Z,23.63
2022-12-03T13:48:23.471Z,22.33
2022-12-03T13:50:56.236Z,25.05
2022-12-03T13:53:40.100Z,23.80
2022-12-03T13:56:30.381Z,26.23
2022-12-03T13:59:04.460Z,21.77
2022-12-03T14:01:37.104Z,23.50
2022-12-03T14:04:10.030Z,22.65
2022-12-03T14:06:42.612Z,22.00
2022-12-03T14:09:15.148Z,25.63
2022-12-03T14:12:06.453Z,25.33
2022-12-03T14:14:39.130Z,27.90
2022-12-03T14:17:11.857Z,26.38
2022-12-03T14:19:44.725Z,22.83
2022-12-03T14:22:19.253Z,25.63
2022-12-03T14:24:53.049Z,27.83
2022-12-03T14:27:25.790Z,25.67
2022-12-03T14:29:58.650Z,23.67
2022-12-03T14:32:31.267Z,25.02
2022-12-03T14:35:09.657Z,28.95
2022-12-03T14:37:42.635Z,19.73
2022-12-03T14:40:19.739Z,23.02
2022-12-03T14:42:54.068Z,24.42
2022-12-03T14:45:28.481Z,26.92
2022-12-03T14:48:01.122Z,25.60
2022-12-03T14:50:33.597Z,26.05
2022-12-03T14:53:06.068Z,25.52
2022-12-03T14:55:38.614Z,29.00
2022-12-03T14:58:11.181Z,28.35
2022-12-03T15:00:43.712Z,22.67
2022-12-03T15:03:16.285Z,26.00
2022-12-03T15:05:49.072Z,28.65
2022-12-03T15:08:21.741Z,26.77
2022-12-03T15:10:54.683Z,33.92
2022-12-03T15:13:27.235Z,27.13
2022-12-03T15:15:59.846Z,23.70
2022-12-03T15:18:34.498Z,23.30
2022-12-03T15:21:07.018Z,25.70
2022-12-03T15:23:39.617Z,26.17
2022-12-03T15:26:12.146Z,27.00
2022-12-03T15:28:48.280Z,26.60
2022-12-03T15:31:21.203Z,26.70
2022-12-03T15:33:53.816Z,25.52
2022-12-03T15:36:26.527Z,31.13
2022-12-03T15:38:59.233Z,30.90
2022-12-03T15:41:31.843Z,26.40
2022-12-03T15:44:04.604Z,26.92
2022-12-03T15:46:37.281Z,25.25
2022-12-03T15:49:09.894Z,25.42
2022-12-03T15:51:42.479Z,21.70
2022-12-03T15:54:15.022Z,27.00
2022-12-03T15:56:48.838Z,22.92
2022-12-03T15:59:24.362Z,23.38
2022-12-03T16:01:56.941Z,24.85
2022-12-03T16:04:29.577Z,27.50
2022-12-03T16:07:02.246Z,23.80
2022-12-03T16:09:34.797Z,27.48
2022-12-03T16:12:07.332Z,30.60
2022-12-03T16:14:39.839Z,25.70
2022-12-03T16:17:12.391Z,21.88
2022-12-03T16:19:45.598Z,28.63
2022-12-03T16:22:18.143Z,32.15
2022-12-03T16:24:50.650Z,27.92
2022-12-03T16:27:25.820Z,23.75
2022-12-03T16:29:58.990Z,30.65
2022-12-03T16:32:31.609Z,23.90
2022-12-03T16:35:04.781Z,25.98
2022-12-03T16:37:37.285Z,25.60
2022-12-03T16:40:10.656Z,29.13
2022-12-03T16:42:43.175Z,25.42
2022-12-03T16:45:24.545Z,25.67
2022-12-03T16:47:57.106Z,26.63
2022-12-03T16:50:31.708Z,23.45
2022-12-03T16:53:04.381Z,20.92
2022-12-03T16:55:36.908Z,27.17
2022-12-03T16:58:09.899Z,26.80
2022-12-03T17:00:42.468Z,23.60
2022-12-03T17:03:16.139Z,27.60
2022-12-03T17:05:49.692Z,28.25
2022-12-03T17:08:27.992Z,28.40
2022-12-03T17:11:00.565Z,32.90
2022-12-03T17:13:33.080Z,31.48
2022-12-03T17:16:06.771Z,29.50
2022-12-03T17:18:39.388Z,26.90
2022-12-03T17:21:12.002Z,23.13
2022-12-03T17:23:46.236Z,32.63
2022-12-03T17:26:21.481Z,32.10
2022-12-03T17:28:53.993Z,32.15
2022-12-03T17:31:27.151Z,34.97
2022-12-03T17:33:59.720Z,37.30
2022-12-03T17:36:32.225Z,29.73
2022-12-03T17:39:04.741Z,31.13
2022-12-03T17:41:37.227Z,33.78
2022-12-03T17:44:24.801Z,35.75
2022-12-03T17:46:57.361Z,29.00
2022-12-03T17:49:31.674Z,37.63
2022-12-03T17:52:04.467Z,29.08
2022-12-03T17:55:01.745Z,32.25
2022-12-03T17:57:29.499Z,33.10
2022-12-03T18:00:02.195Z,34.03
2022-12-03T18:02:34.734Z,38.63
2022-12-03T18:05:07.636Z,36.92
2022-12-03T18:07:43.253Z,34.83
2022-12-03T18:10:15.914Z,29.90
2022-12-03T18:12:49.057Z,32.08
2022-12-03T18:15:21.536Z,29.45
2022-12-03T18:17:54.014Z,34.35
2022-12-03T18:20:26.815Z,31.80
2022-12-03T18:22:59.619Z,34.15
2022-12-03T18:25:32.211Z,36.28
2022-12-03T18:28:05.842Z,34.92
2022-12-03T18:30:38.470Z,29.48
2022-12-03T18:33:11.132Z,31.13
2022-12-03T18:35:44.537Z,25.45
2022-12-03T18:38:18.327Z,34.92
2022-12-03T18:40:55.735Z,33.05
2022-12-03T18:43:28.374Z,33.38
2022-12-03T18:46:00.959Z,25.55
2022-12-03T18:48:33.433Z,27.75
2022-12-03T18:51:18.812Z,32.70
2022-12-03T18:53:51.672Z,31.67
2022-12-03T18:56:24.199Z,38.05
2022-12-03T18:58:56.681Z,33.28
2022-12-03T19:01:29.274Z,34.75
2022-12-03T19:04:01.899Z,30.45
2022-12-03T19:06:34.386Z,31.15
2022-12-03T19:09:07.168Z,31.45
2022-12-03T19:11:39.780Z,32.63
2022-12-03T19:14:12.372Z,33.33
2022-12-03T19:16:45.408Z,27.27
2022-12-03T19:19:20.370Z,26.95
2022-12-03T19:21:54.264Z,31.50
2022-12-03T19:24:27.290Z,30.80
2022-12-03T19:26:59.908Z,33.70
2022-12-03T19:29:32.372Z,31.63
2022-12-03T19:32:05.546Z,32.05
2022-12-03T19:34:38.167Z,31.35
2022-12-03T19:37:10.697Z,31.70
2022-12-03T19:39:43.481Z,28.73
2022-12-03T19:42:17.257Z,28.73
2022-12-03T19:44:49.774Z,34.75
2022-12-03T19:47:24.692Z,29.40
2022-12-03T19:49:57.623Z,31.00
2022-12-03T19:52:30.281Z,34.80
2022-12-03T19:55:03.213Z,30.42
2022-12-03T19:57:35.678Z,29.90
2022-12-03T20:00:09.224Z,35.17
2022-12-03T20:02:41.785Z,31.95
2022-12-03T20:05:14.598Z,40.85
2022-12-03T20:07:47.426Z,34.22
2022-12-03T20:10:20.144Z,32.47
2022-12-03T20:12:54.509Z,34.85
2022-12-03T20:15:28.007Z,38.17
2022-12-03T20:18:00.571Z,38.65
2022-12-03T20:20:33.050Z,31.48
2022-12-03T20:23:05.583Z,37.33
2022-12-03T20:25:38.113Z,30.02
2022-12-03T20:28:10.610Z,38.20
2022-12-03T20:30:45.243Z,37.13
2022-12-03T20:33:17.838Z,32.67
2022-12-03T20:35:55.095Z,31.25
2022-12-03T20:38:27.718Z,36.53
2022-12-03T20:41:10.450Z,31.83
2022-12-03T20:43:43.089Z,38.83
2022-12-03T20:46:20.168Z,37.28
2022-12-03T20:48:56.572Z,28.35
2022-12-03T20:51:31.625Z,35.85
2022-12-03T20:54:04.408Z,33.38
2022-12-03T20:56:42.021Z,40.20
2022-12-03T20:59:17.187Z,31.80
2022-12-03T21:01:50.132Z,44.58
2022-12-03T21:04:22.796Z,31.92
2022-12-03T21:06:55.289Z,32.65
2022-12-03T21:09:27.941Z,37.45
2022-12-03T21:12:00.414Z,33.58
2022-12-03T21:14:32.998Z,32.05
2022-12-03T21:17:08.707Z,36.95
2022-12-03T21:19:42.061Z,37.17
2022-12-03T21:22:15.013Z,33.65
2022-12-03T21:24:47.702Z,36.95
2022-12-03T21:27:21.978Z,33.65
2022-12-03T21:29:55.505Z,37.53
2022-12-03T21:32:28.303Z,41.15
2022-12-03T21:35:00.945Z,37.58
2022-12-03T21:37:33.410Z,44.20
2022-12-03T21:40:07.149Z,36.85
2022-12-03T21:42:39.641Z,38.58
2022-12-03T21:45:12.312Z,46.40
2022-12-03T21:47:48.473Z,35.00
2022-12-03T21:50:21.191Z,34.17
2022-12-03T21:52:53.864Z,48.25
2022-12-03T21:55:26.628Z,41.70
2022-12-03T21:57:59.214Z,42.30
2022-12-03T22:00:31.793Z,42.83
2022-12-03T22:03:04.414Z,37.65
2022-12-03T22:05:40.313Z,39.25
2022-12-03T22:08:13.745Z,41.25
2022-12-03T22:10:46.324Z,39.10
2022-12-03T22:13:18.882Z,44.92
2022-12-03T22:15:51.483Z,33.05
2022-12-03T22:18:24.016Z,33.53
2022-12-03T22:20:56.543Z,38.30
2022-12-03T22:23:30.904Z,41.08
2022-12-03T22:26:11.177Z,39.13
2022-12-03T22:28:48.890Z,38.33
2022-12-03T22:31:21.676Z,38.58
2022-12-03T22:33:54.173Z,39.42
2022-12-03T22:36:26.699Z,38.35
2022-12-03T22:38:59.231Z,31.17
2022-12-03T22:41:31.733Z,33.97
2022-12-03T22:44:04.351Z,35.70
2022-12-03T22:46:36.947Z,38.53
2022-12-03T22:49:13.011Z,39.13
2022-12-03T22:51:47.147Z,40.13
2022-12-03T22:54:23.950Z,43.33
2022-12-03T22:56:56.903Z,26.77
2022-12-03T22:59:29.460Z,42.67
2022-12-03T23:02:02.019Z,36.13
2022-12-03T23:04:34.541Z,39.90
2022-12-03T23:07:08.261Z,35.28
2022-12-03T23:09:40.828Z,38.65
2022-12-03T23:12:14.564Z,35.15
2022-12-03T23:14:47.055Z,34.17
2022-12-03T23:17:19.555Z,36.30
2022-12-03T23:19:52.187Z,46.08
2022-12-03T23:22:24.796Z,31.92
2022-12-03T23:24:57.427Z,38.47
2022-12-03T23:27:30.324Z,32.25
2022-12-03T23:30:03.990Z,34.50
2022-12-03T23:32:36.779Z,33.70
2022-12-03T23:35:10.803Z,38.00
2022-12-03T23:37:44.410Z,32.47
2022-12-03T23:40:16.984Z,32.60
2022-12-03T23:42:49.931Z,39.13
2022-12-03T23:45:22.676Z,35.72
2022-12-03T23:47:58.384Z,35.85
2022-12-03T23:50:31.180Z,48.97
2022-12-03T23:53:03.801Z,38.60
2022-12-03T23:55:40.407Z,32.83
